sensor_id;sensor_type;location;lat;lon;timestamp;P1;durP1;ratioP1;P2;durP2;ratioP2
74620;SDS011;64861;47.546;19.254;2022-11-12T00:00:37;11.57;;;7.68;;
74620;SDS011;64861;47.546;19.254;2022-11-12T00:03:03;12.65;;;8.05;;
74620;SDS011;64861;47.546;19.254;2022-11-12T00:05:29;12.32;;;7.90;;
74620;SDS011;64861;47.546;19.254;2022-11-12T00:07:54;13.90;;;8.30;;
74620;SDS011;64861;47.546;19.254;2022-11-12T00:10:20;11.65;;;7.72;;
74620;SDS011;64861;47.546;19.254;2022-11-12T00:12:46;11.60;;;7.65;;
74620;SDS011;64861;47.546;19.254;2022-11-12T00:15:11;11.20;;;7.10;;
74620;SDS011;64861;47.546;19.254;2022-11-12T00:17:37;12.30;;;7.90;;
74620;SDS011;64861;47.546;19.254;2022-11-12T00:20:03;13.05;;;8.35;;
74620;SDS011;64861;47.546;19.254;2022-11-12T00:22:29;14.45;;;8.02;;
74620;SDS011;64861;47.546;19.254;2022-11-12T00:24:55;11.13;;;7.32;;
74620;SDS011;64861;47.546;19.254;2022-11-12T00:27:21;14.10;;;7.55;;
74620;SDS011;64861;47.546;19.254;2022-11-12T00:29:46;12.98;;;7.55;;
74620;SDS011;64861;47.546;19.254;2022-11-12T00:32:12;11.25;;;6.97;;
74620;SDS011;64861;47.546;19.254;2022-11-12T00:34:38;11.45;;;7.28;;
74620;SDS011;64861;47.546;19.254;2022-11-12T00:37:03;12.90;;;7.97;;
74620;SDS011;64861;47.546;19.254;2022-11-12T00:39:29;12.43;;;7.65;;
74620;SDS011;64861;47.546;19.254;2022-11-12T00:41:54;13.02;;;7.95;;
74620;SDS011;64861;47.546;19.254;2022-11-12T00:44:20;12.73;;;7.88;;
74620;SDS011;64861;47.546;19.254;2022-11-12T00:46:46;12.32;;;7.28;;
74620;SDS011;64861;47.546;19.254;2022-11-12T00:49:12;11.70;;;7.10;;
74620;SDS011;64861;47.546;19.254;2022-11-12T00:51:37;12.98;;;6.95;;
74620;SDS011;64861;47.546;19.254;2022-11-12T00:54:03;12.15;;;6.88;;
74620;SDS011;64861;47.546;19.254;2022-11-12T00:56:29;11.65;;;7.53;;
74620;SDS011;64861;47.546;19.254;2022-11-12T00:58:55;11.82;;;7.60;;
74620;SDS011;64861;47.546;19.254;2022-11-12T01:01:21;12.65;;;7.47;;
74620;SDS011;64861;47.546;19.254;2022-11-12T01:03:47;14.80;;;7.38;;
74620;SDS011;64861;47.546;19.254;2022-11-12T01:06:16;11.38;;;7.50;;
74620;SDS011;64861;47.546;19.254;2022-11-12T01:08:44;12.40;;;7.60;;
74620;SDS011;64861;47.546;19.254;2022-11-12T01:11:11;12.43;;;7.20;;
74620;SDS011;64861;47.546;19.254;2022-11-12T01:13:40;11.93;;;6.97;;
74620;SDS011;64861;47.546;19.254;2022-11-12T01:16:07;12.45;;;7.20;;
74620;SDS011;64861;47.546;19.254;2022-11-12T01:18:35;11.82;;;6.88;;
74620;SDS011;64861;47.546;19.254;2022-11-12T01:21:01;11.43;;;6.93;;
74620;SDS011;64861;47.546;19.254;2022-11-12T01:23:27;9.68;;;6.25;;
74620;SDS011;64861;47.546;19.254;2022-11-12T01:25:53;13.10;;;6.93;;
74620;SDS011;64861;47.546;19.254;2022-11-12T01:28:19;10.77;;;6.43;;
74620;SDS011;64861;47.546;19.254;2022-11-12T01:30:44;11.20;;;7.10;;
74620;SDS011;64861;47.546;19.254;2022-11-12T01:33:10;10.40;;;6.65;;
74620;SDS011;64861;47.546;19.254;2022-11-12T01:35:35;12.98;;;7.40;;
74620;SDS011;64861;47.546;19.254;2022-11-12T01:38:01;11.23;;;7.00;;
74620;SDS011;64861;47.546;19.254;2022-11-12T01:40:26;11.57;;;6.97;;
74620;SDS011;64861;47.546;19.254;2022-11-12T01:42:52;10.27;;;6.78;;
74620;SDS011;64861;47.546;19.254;2022-11-12T01:45:18;10.70;;;6.78;;
74620;SDS011;64861;47.546;19.254;2022-11-12T01:47:45;11.48;;;6.95;;
74620;SDS011;64861;47.546;19.254;2022-11-12T01:50:19;10.63;;;6.80;;
74620;SDS011;64861;47.546;19.254;2022-11-12T01:52:50;11.27;;;6.72;;
74620;SDS011;64861;47.546;19.254;2022-11-12T01:55:24;10.75;;;6.40;;
74620;SDS011;64861;47.546;19.254;2022-11-12T01:57:55;8.80;;;6.03;;
74620;SDS011;64861;47.546;19.254;2022-11-12T02:00:29;10.80;;;6.65;;
74620;SDS011;64861;47.546;19.254;2022-11-12T02:02:56;11.88;;;6.75;;
74620;SDS011;64861;47.546;19.254;2022-11-12T02:05:24;11.32;;;6.65;;
74620;SDS011;64861;47.546;19.254;2022-11-12T02:07:52;10.90;;;6.10;;
74620;SDS011;64861;47.546;19.254;2022-11-12T02:10:19;9.85;;;6.13;;
74620;SDS011;64861;47.546;19.254;2022-11-12T02:12:47;10.88;;;6.50;;
74620;SDS011;64861;47.546;19.254;2022-11-12T02:15:32;9.88;;;6.00;;
74620;SDS011;64861;47.546;19.254;2022-11-12T02:17:58;9.95;;;6.25;;
74620;SDS011;64861;47.546;19.254;2022-11-12T02:20:23;10.45;;;5.78;;
74620;SDS011;64861;47.546;19.254;2022-11-12T02:22:49;9.07;;;5.78;;
74620;SDS011;64861;47.546;19.254;2022-11-12T02:25:21;9.40;;;5.85;;
74620;SDS011;64861;47.546;19.254;2022-11-12T02:27:49;9.82;;;6.10;;
74620;SDS011;64861;47.546;19.254;2022-11-12T02:30:18;11.63;;;6.28;;
74620;SDS011;64861;47.546;19.254;2022-11-12T02:32:43;9.75;;;5.63;;
74620;SDS011;64861;47.546;19.254;2022-11-12T02:35:09;10.55;;;5.70;;
74620;SDS011;64861;47.546;19.254;2022-11-12T02:37:34;10.63;;;5.75;;
74620;SDS011;64861;47.546;19.254;2022-11-12T02:40:00;10.52;;;6.45;;
74620;SDS011;64861;47.546;19.254;2022-11-12T02:42:25;9.88;;;5.82;;
74620;SDS011;64861;47.546;19.254;2022-11-12T02:44:51;10.50;;;6.10;;
74620;SDS011;64861;47.546;19.254;2022-11-12T02:47:16;9.88;;;6.05;;
74620;SDS011;64861;47.546;19.254;2022-11-12T02:49:42;10.07;;;6.00;;
74620;SDS011;64861;47.546;19.254;2022-11-12T02:52:08;9.30;;;5.70;;
74620;SDS011;64861;47.546;19.254;2022-11-12T02:54:34;9.02;;;5.38;;
74620;SDS011;64861;47.546;19.254;2022-11-12T02:57:00;10.57;;;5.90;;
74620;SDS011;64861;47.546;19.254;2022-11-12T02:59:25;8.57;;;5.15;;
74620;SDS011;64861;47.546;19.254;2022-11-12T03:01:51;8.82;;;5.63;;
74620;SDS011;64861;47.546;19.254;2022-11-12T03:04:16;10.35;;;5.38;;
74620;SDS011;64861;47.546;19.254;2022-11-12T03:06:41;8.57;;;5.20;;
74620;SDS011;64861;47.546;19.254;2022-11-12T03:09:07;9.18;;;5.78;;
74620;SDS011;64861;47.546;19.254;2022-11-12T03:11:32;9.30;;;5.35;;
74620;SDS011;64861;47.546;19.254;2022-11-12T03:13:58;9.52;;;5.57;;
74620;SDS011;64861;47.546;19.254;2022-11-12T03:16:23;9.82;;;5.40;;
74620;SDS011;64861;47.546;19.254;2022-11-12T03:18:48;9.02;;;4.93;;
74620;SDS011;64861;47.546;19.254;2022-11-12T03:21:14;8.75;;;5.45;;
74620;SDS011;64861;47.546;19.254;2022-11-12T03:23:39;9.48;;;5.70;;
74620;SDS011;64861;47.546;19.254;2022-11-12T03:26:05;9.40;;;5.28;;
74620;SDS011;64861;47.546;19.254;2022-11-12T03:28:30;8.60;;;5.03;;
74620;SDS011;64861;47.546;19.254;2022-11-12T03:30:57;9.18;;;5.25;;
74620;SDS011;64861;47.546;19.254;2022-11-12T03:33:24;10.20;;;5.60;;
74620;SDS011;64861;47.546;19.254;2022-11-12T03:35:50;9.15;;;5.50;;
74620;SDS011;64861;47.546;19.254;2022-11-12T03:38:15;9.25;;;5.57;;
74620;SDS011;64861;47.546;19.254;2022-11-12T03:40:40;9.45;;;5.53;;
74620;SDS011;64861;47.546;19.254;2022-11-12T03:43:06;10.30;;;5.50;;
74620;SDS011;64861;47.546;19.254;2022-11-12T03:45:32;9.38;;;5.22;;
74620;SDS011;64861;47.546;19.254;2022-11-12T03:47:58;8.02;;;4.85;;
74620;SDS011;64861;47.546;19.254;2022-11-12T03:50:24;9.43;;;5.13;;
74620;SDS011;64861;47.546;19.254;2022-11-12T03:52:53;8.48;;;4.93;;
74620;SDS011;64861;47.546;19.254;2022-11-12T03:55:20;7.88;;;4.95;;
74620;SDS011;64861;47.546;19.254;2022-11-12T03:57:47;8.82;;;4.70;;
74620;SDS011;64861;47.546;19.254;2022-11-12T04:00:14;9.07;;;5.30;;
74620;SDS011;64861;47.546;19.254;2022-11-12T04:02:39;9.13;;;4.80;;
74620;SDS011;64861;47.546;19.254;2022-11-12T04:05:05;7.85;;;4.82;;
74620;SDS011;64861;47.546;19.254;2022-11-12T04:08:00;9.18;;;5.07;;
74620;SDS011;64861;47.546;19.254;2022-11-12T04:10:46;8.27;;;4.80;;
74620;SDS011;64861;47.546;19.254;2022-11-12T04:13:12;7.95;;;4.72;;
74620;SDS011;64861;47.546;19.254;2022-11-12T04:15:56;9.85;;;4.43;;
74620;SDS011;64861;47.546;19.254;2022-11-12T04:18:42;7.68;;;4.68;;
74620;SDS011;64861;47.546;19.254;2022-11-12T04:21:31;8.95;;;5.00;;
74620;SDS011;64861;47.546;19.254;2022-11-12T04:24:28;7.50;;;4.13;;
74620;SDS011;64861;47.546;19.254;2022-11-12T04:27:33;8.20;;;4.43;;
74620;SDS011;64861;47.546;19.254;2022-11-12T04:29:59;8.27;;;4.68;;
74620;SDS011;64861;47.546;19.254;2022-11-12T04:32:47;7.50;;;4.20;;
74620;SDS011;64861;47.546;19.254;2022-11-12T04:35:15;7.22;;;4.28;;
74620;SDS011;64861;47.546;19.254;2022-11-12T04:37:42;7.72;;;4.43;;
74620;SDS011;64861;47.546;19.254;2022-11-12T04:42:54;7.20;;;4.22;;
74620;SDS011;64861;47.546;19.254;2022-11-12T04:45:38;7.35;;;4.40;;
74620;SDS011;64861;47.546;19.254;2022-11-12T04:48:06;7.65;;;3.75;;
74620;SDS011;64861;47.546;19.254;2022-11-12T04:50:31;6.70;;;4.03;;
74620;SDS011;64861;47.546;19.254;2022-11-12T04:52:57;6.75;;;4.13;;
74620;SDS011;64861;47.546;19.254;2022-11-12T04:55:23;6.80;;;4.00;;
74620;SDS011;64861;47.546;19.254;2022-11-12T04:57:48;7.57;;;4.22;;
74620;SDS011;64861;47.546;19.254;2022-11-12T05:00:14;8.35;;;4.25;;
74620;SDS011;64861;47.546;19.254;2022-11-12T05:02:40;7.20;;;3.70;;
74620;SDS011;64861;47.546;19.254;2022-11-12T05:05:05;6.68;;;4.05;;
74620;SDS011;64861;47.546;19.254;2022-11-12T05:07:31;8.20;;;4.35;;
74620;SDS011;64861;47.546;19.254;2022-11-12T05:09:57;8.20;;;3.80;;
74620;SDS011;64861;47.546;19.254;2022-11-12T05:12:22;7.03;;;3.90;;
74620;SDS011;64861;47.546;19.254;2022-11-12T05:14:48;6.80;;;3.80;;
74620;SDS011;64861;47.546;19.254;2022-11-12T05:17:13;7.45;;;4.05;;
74620;SDS011;64861;47.546;19.254;2022-11-12T05:19:39;6.95;;;3.92;;
74620;SDS011;64861;47.546;19.254;2022-11-12T05:22:04;7.88;;;4.00;;
74620;SDS011;64861;47.546;19.254;2022-11-12T05:27:08;7.32;;;4.10;;
74620;SDS011;64861;47.546;19.254;2022-11-12T05:29:38;6.53;;;3.42;;
74620;SDS011;64861;47.546;19.254;2022-11-12T05:32:07;6.80;;;3.95;;
74620;SDS011;64861;47.546;19.254;2022-11-12T05:34:35;6.63;;;3.80;;
74620;SDS011;64861;47.546;19.254;2022-11-12T05:37:01;7.63;;;3.55;;
74620;SDS011;64861;47.546;19.254;2022-11-12T05:39:28;5.85;;;3.30;;
74620;SDS011;64861;47.546;19.254;2022-11-12T05:41:53;7.97;;;3.67;;
74620;SDS011;64861;47.546;19.254;2022-11-12T05:44:19;6.00;;;3.40;;
74620;SDS011;64861;47.546;19.254;2022-11-12T05:46:45;6.40;;;3.40;;
74620;SDS011;64861;47.546;19.254;2022-11-12T05:49:10;6.85;;;3.22;;
74620;SDS011;64861;47.546;19.254;2022-11-12T05:51:36;8.75;;;3.42;;
74620;SDS011;64861;47.546;19.254;2022-11-12T05:54:02;6.68;;;3.30;;
74620;SDS011;64861;47.546;19.254;2022-11-12T05:56:28;6.80;;;3.70;;
74620;SDS011;64861;47.546;19.254;2022-11-12T05:58:54;7.00;;;3.63;;
74620;SDS011;64861;47.546;19.254;2022-11-12T06:01:19;6.65;;;3.50;;
74620;SDS011;64861;47.546;19.254;2022-11-12T06:03:45;6.18;;;3.28;;
74620;SDS011;64861;47.546;19.254;2022-11-12T06:06:11;6.80;;;3.78;;
74620;SDS011;64861;47.546;19.254;2022-11-12T06:08:36;6.22;;;3.33;;
74620;SDS011;64861;47.546;19.254;2022-11-12T06:11:01;7.55;;;3.22;;
74620;SDS011;64861;47.546;19.254;2022-11-12T06:13:27;5.93;;;3.55;;
74620;SDS011;64861;47.546;19.254;2022-11-12T06:15:53;5.80;;;3.28;;
74620;SDS011;64861;47.546;19.254;2022-11-12T06:18:19;5.32;;;3.13;;
74620;SDS011;64861;47.546;19.254;2022-11-12T06:20:46;7.57;;;3.60;;
74620;SDS011;64861;47.546;19.254;2022-11-12T06:23:31;6.18;;;3.50;;
74620;SDS011;64861;47.546;19.254;2022-11-12T06:25:57;7.93;;;3.70;;
74620;SDS011;64861;47.546;19.254;2022-11-12T06:28:23;6.15;;;3.40;;
74620;SDS011;64861;47.546;19.254;2022-11-12T06:30:49;7.60;;;3.10;;
74620;SDS011;64861;47.546;19.254;2022-11-12T06:33:14;10.15;;;3.38;;
74620;SDS011;64861;47.546;19.254;2022-11-12T06:35:39;7.53;;;3.58;;
74620;SDS011;64861;47.546;19.254;2022-11-12T06:38:05;7.80;;;3.58;;
74620;SDS011;64861;47.546;19.254;2022-11-12T06:40:30;13.45;;;4.00;;
74620;SDS011;64861;47.546;19.254;2022-11-12T06:42:56;52.88;;;17.23;;
74620;SDS011;64861;47.546;19.254;2022-11-12T06:45:22;58.58;;;17.40;;
74620;SDS011;64861;47.546;19.254;2022-11-12T06:47:48;52.20;;;17.33;;
74620;SDS011;64861;47.546;19.254;2022-11-12T06:50:14;46.25;;;15.93;;
74620;SDS011;64861;47.546;19.254;2022-11-12T06:52:39;44.97;;;16.63;;
74620;SDS011;64861;47.546;19.254;2022-11-12T06:55:05;53.47;;;16.10;;
74620;SDS011;64861;47.546;19.254;2022-11-12T06:57:32;44.72;;;15.00;;
74620;SDS011;64861;47.546;19.254;2022-11-12T06:59:58;48.80;;;15.65;;
74620;SDS011;64861;47.546;19.254;2022-11-12T07:02:23;50.60;;;15.63;;
74620;SDS011;64861;47.546;19.254;2022-11-12T07:04:49;49.22;;;15.02;;
74620;SDS011;64861;47.546;19.254;2022-11-12T07:07:14;43.15;;;14.52;;
74620;SDS011;64861;47.546;19.254;2022-11-12T07:09:40;43.15;;;14.30;;
74620;SDS011;64861;47.546;19.254;2022-11-12T07:12:05;49.47;;;14.05;;
74620;SDS011;64861;47.546;19.254;2022-11-12T07:14:31;38.08;;;13.10;;
74620;SDS011;64861;47.546;19.254;2022-11-12T07:16:56;41.08;;;13.10;;
74620;SDS011;64861;47.546;19.254;2022-11-12T07:19:22;33.67;;;12.57;;
74620;SDS011;64861;47.546;19.254;2022-11-12T07:21:47;37.38;;;11.65;;
74620;SDS011;64861;47.546;19.254;2022-11-12T07:24:12;42.33;;;12.18;;
74620;SDS011;64861;47.546;19.254;2022-11-12T07:26:38;31.45;;;12.13;;
74620;SDS011;64861;47.546;19.254;2022-11-12T07:29:03;34.45;;;10.77;;
74620;SDS011;64861;47.546;19.254;2022-11-12T07:31:31;34.92;;;11.48;;
74620;SDS011;64861;47.546;19.254;2022-11-12T07:33:56;41.40;;;11.90;;
74620;SDS011;64861;47.546;19.254;2022-11-12T07:36:22;30.85;;;11.88;;
74620;SDS011;64861;47.546;19.254;2022-11-12T07:38:50;32.85;;;11.88;;
74620;SDS011;64861;47.546;19.254;2022-11-12T07:41:17;31.38;;;11.18;;
74620;SDS011;64861;47.546;19.254;2022-11-12T07:43:46;32.10;;;11.73;;
74620;SDS011;64861;47.546;19.254;2022-11-12T07:46:14;29.80;;;11.73;;
74620;SDS011;64861;47.546;19.254;2022-11-12T07:48:44;33.15;;;12.05;;
74620;SDS011;64861;47.546;19.254;2022-11-12T07:51:17;33.17;;;12.60;;
74620;SDS011;64861;47.546;19.254;2022-11-12T07:53:45;31.75;;;11.38;;
74620;SDS011;64861;47.546;19.254;2022-11-12T07:56:15;35.85;;;11.77;;
74620;SDS011;64861;47.546;19.254;2022-11-12T07:58:43;34.17;;;11.85;;
74620;SDS011;64861;47.546;19.254;2022-11-12T08:01:10;31.77;;;11.52;;
74620;SDS011;64861;47.546;19.254;2022-11-12T08:03:35;31.02;;;10.82;;
74620;SDS011;64861;47.546;19.254;2022-11-12T08:06:02;24.75;;;11.20;;
74620;SDS011;64861;47.546;19.254;2022-11-12T08:08:27;29.50;;;11.57;;
74620;SDS011;64861;47.546;19.254;2022-11-12T08:10:56;27.95;;;11.50;;
74620;SDS011;64861;47.546;19.254;2022-11-12T08:13:22;38.08;;;11.80;;
74620;SDS011;64861;47.546;19.254;2022-11-12T08:15:49;30.75;;;11.48;;
74620;SDS011;64861;47.546;19.254;2022-11-12T08:18:14;30.90;;;11.95;;
74620;SDS011;64861;47.546;19.254;2022-11-12T08:20:40;26.55;;;10.98;;
74620;SDS011;64861;47.546;19.254;2022-11-12T08:23:06;26.60;;;10.45;;
74620;SDS011;64861;47.546;19.254;2022-11-12T08:25:32;28.73;;;10.75;;
74620;SDS011;64861;47.546;19.254;2022-11-12T08:27:58;29.05;;;10.73;;
74620;SDS011;64861;47.546;19.254;2022-11-12T08:30:26;28.25;;;10.07;;
74620;SDS011;64861;47.546;19.254;2022-11-12T08:32:59;32.50;;;11.07;;
74620;SDS011;64861;47.546;19.254;2022-11-12T08:35:26;29.55;;;10.18;;
74620;SDS011;64861;47.546;19.254;2022-11-12T08:37:59;22.80;;;9.43;;
74620;SDS011;64861;47.546;19.254;2022-11-12T08:40:26;23.10;;;9.23;;
74620;SDS011;64861;47.546;19.254;2022-11-12T08:43:00;24.75;;;9.35;;
74620;SDS011;64861;47.546;19.254;2022-11-12T08:45:34;21.23;;;9.45;;
74620;SDS011;64861;47.546;19.254;2022-11-12T08:48:04;23.30;;;8.90;;
74620;SDS011;64861;47.546;19.254;2022-11-12T08:50:32;20.48;;;8.45;;
74620;SDS011;64861;47.546;19.254;2022-11-12T08:53:16;23.25;;;7.80;;
74620;SDS011;64861;47.546;19.254;2022-11-12T08:58:07;21.02;;;7.53;;
74620;SDS011;64861;47.546;19.254;2022-11-12T09:00:36;21.45;;;7.80;;
74620;SDS011;64861;47.546;19.254;2022-11-12T09:03:12;18.83;;;7.03;;
74620;SDS011;64861;47.546;19.254;2022-11-12T09:05:38;18.65;;;7.35;;
74620;SDS011;64861;47.546;19.254;2022-11-12T09:08:08;17.98;;;6.95;;
74620;SDS011;64861;47.546;19.254;2022-11-12T09:10:35;16.70;;;7.88;;
74620;SDS011;64861;47.546;19.254;2022-11-12T09:13:01;17.52;;;7.63;;
74620;SDS011;64861;47.546;19.254;2022-11-12T09:15:27;19.98;;;7.65;;
74620;SDS011;64861;47.546;19.254;2022-11-12T09:17:57;19.65;;;7.10;;
74620;SDS011;64861;47.546;19.254;2022-11-12T09:20:23;23.75;;;7.03;;
74620;SDS011;64861;47.546;19.254;2022-11-12T09:22:50;17.05;;;6.30;;
74620;SDS011;64861;47.546;19.254;2022-11-12T09:25:16;21.35;;;6.78;;
74620;SDS011;64861;47.546;19.254;2022-11-12T09:27:42;18.33;;;7.00;;
74620;SDS011;64861;47.546;19.254;2022-11-12T09:30:08;24.42;;;6.80;;
74620;SDS011;64861;47.546;19.254;2022-11-12T09:32:33;22.92;;;6.50;;
74620;SDS011;64861;47.546;19.254;2022-11-12T09:34:59;19.13;;;7.25;;
74620;SDS011;64861;47.546;19.254;2022-11-12T09:37:24;21.30;;;6.18;;
74620;SDS011;64861;47.546;19.254;2022-11-12T09:39:50;16.90;;;6.85;;
74620;SDS011;64861;47.546;19.254;2022-11-12T09:42:16;16.55;;;6.22;;
74620;SDS011;64861;47.546;19.254;2022-11-12T09:44:49;18.67;;;6.63;;
74620;SDS011;64861;47.546;19.254;2022-11-12T09:47:33;18.55;;;5.68;;
74620;SDS011;64861;47.546;19.254;2022-11-12T09:52:51;16.40;;;6.32;;
74620;SDS011;64861;47.546;19.254;2022-11-12T09:55:28;18.63;;;6.30;;
74620;SDS011;64861;47.546;19.254;2022-11-12T09:58:00;13.68;;;6.15;;
74620;SDS011;64861;47.546;19.254;2022-11-12T10:00:25;18.35;;;6.45;;
74620;SDS011;64861;47.546;19.254;2022-11-12T10:02:57;16.58;;;5.63;;
74620;SDS011;64861;47.546;19.254;2022-11-12T10:11:23;18.92;;;5.97;;
74620;SDS011;64861;47.546;19.254;2022-11-12T10:20:30;17.70;;;5.25;;
74620;SDS011;64861;47.546;19.254;2022-11-12T10:23:17;19.55;;;4.82;;
74620;SDS011;64861;47.546;19.254;2022-11-12T10:25:45;20.75;;;5.47;;
74620;SDS011;64861;47.546;19.254;2022-11-12T10:28:37;19.58;;;5.80;;
74620;SDS011;64861;47.546;19.254;2022-11-12T10:31:11;20.33;;;5.50;;
74620;SDS011;64861;47.546;19.254;2022-11-12T10:33:44;18.48;;;5.15;;
74620;SDS011;64861;47.546;19.254;2022-11-12T10:38:55;30.35;;;5.30;;
74620;SDS011;64861;47.546;19.254;2022-11-12T10:41:25;15.95;;;4.75;;
74620;SDS011;64861;47.546;19.254;2022-11-12T10:43:56;18.40;;;5.72;;
74620;SDS011;64861;47.546;19.254;2022-11-12T10:48:58;25.92;;;8.35;;
74620;SDS011;64861;47.546;19.254;2022-11-12T10:51:36;17.88;;;6.28;;
74620;SDS011;64861;47.546;19.254;2022-11-12T10:56:43;21.67;;;5.88;;
74620;SDS011;64861;47.546;19.254;2022-11-12T10:59:18;18.45;;;6.05;;
74620;SDS011;64861;47.546;19.254;2022-11-12T11:01:52;16.25;;;4.80;;
74620;SDS011;64861;47.546;19.254;2022-11-12T11:06:56;13.75;;;4.80;;
74620;SDS011;64861;47.546;19.254;2022-11-12T11:09:31;15.55;;;5.13;;
74620;SDS011;64861;47.546;19.254;2022-11-12T11:11:57;13.45;;;4.60;;
74620;SDS011;64861;47.546;19.254;2022-11-12T11:14:27;19.55;;;5.18;;
74620;SDS011;64861;47.546;19.254;2022-11-12T11:16:59;10.18;;;4.85;;
74620;SDS011;64861;47.546;19.254;2022-11-12T11:19:35;15.02;;;4.95;;
74620;SDS011;64861;47.546;19.254;2022-11-12T11:30:10;11.15;;;4.70;;
74620;SDS011;64861;47.546;19.254;2022-11-12T11:38:22;11.35;;;4.28;;
74620;SDS011;64861;47.546;19.254;2022-11-12T11:43:36;12.68;;;4.68;;
74620;SDS011;64861;47.546;19.254;2022-11-12T11:57:26;10.32;;;3.90;;
74620;SDS011;64861;47.546;19.254;2022-11-12T12:11:12;8.45;;;3.60;;
74620;SDS011;64861;47.546;19.254;2022-11-12T12:16:47;8.18;;;3.60;;
74620;SDS011;64861;47.546;19.254;2022-11-12T12:21:51;9.05;;;3.65;;
74620;SDS011;64861;47.546;19.254;2022-11-12T12:24:28;7.03;;;3.28;;
74620;SDS011;64861;47.546;19.254;2022-11-12T12:27:29;6.13;;;3.30;;
74620;SDS011;64861;47.546;19.254;2022-11-12T12:30:17;7.25;;;3.80;;
74620;SDS011;64861;47.546;19.254;2022-11-12T12:32:55;9.13;;;3.78;;
74620;SDS011;64861;47.546;19.254;2022-11-12T12:35:28;7.65;;;3.50;;
74620;SDS011;64861;47.546;19.254;2022-11-12T12:40:50;9.63;;;3.72;;
74620;SDS011;64861;47.546;19.254;2022-11-12T12:46:01;8.30;;;3.60;;
74620;SDS011;64861;47.546;19.254;2022-11-12T12:48:32;7.85;;;3.47;;
74620;SDS011;64861;47.546;19.254;2022-11-12T12:51:01;12.85;;;3.90;;
74620;SDS011;64861;47.546;19.254;2022-11-12T12:55:59;8.45;;;3.45;;
74620;SDS011;64861;47.546;19.254;2022-11-12T13:03:52;8.38;;;3.20;;
74620;SDS011;64861;47.546;19.254;2022-11-12T13:08:52;6.18;;;3.17;;
74620;SDS011;64861;47.546;19.254;2022-11-12T13:16:55;7.22;;;3.05;;
74620;SDS011;64861;47.546;19.254;2022-11-12T13:19:28;6.75;;;3.53;;
74620;SDS011;64861;47.546;19.254;2022-11-12T13:25:00;7.00;;;3.22;;
74620;SDS011;64861;47.546;19.254;2022-11-12T13:37:59;6.22;;;2.92;;
74620;SDS011;64861;47.546;19.254;2022-11-12T13:42:55;5.97;;;2.78;;
74620;SDS011;64861;47.546;19.254;2022-11-12T13:45:24;6.68;;;3.03;;
74620;SDS011;64861;47.546;19.254;2022-11-12T13:47:51;5.00;;;2.50;;
74620;SDS011;64861;47.546;19.254;2022-11-12T13:50:21;6.35;;;2.60;;
74620;SDS011;64861;47.546;19.254;2022-11-12T13:52:48;5.80;;;2.88;;
74620;SDS011;64861;47.546;19.254;2022-11-12T13:55:15;5.05;;;2.75;;
74620;SDS011;64861;47.546;19.254;2022-11-12T13:57:49;6.22;;;2.53;;
74620;SDS011;64861;47.546;19.254;2022-11-12T14:00:25;6.25;;;2.80;;
74620;SDS011;64861;47.546;19.254;2022-11-12T14:02:56;6.15;;;2.60;;
74620;SDS011;64861;47.546;19.254;2022-11-12T14:05:28;4.38;;;2.30;;
74620;SDS011;64861;47.546;19.254;2022-11-12T14:13:44;4.93;;;2.42;;
74620;SDS011;64861;47.546;19.254;2022-11-12T14:22:06;4.75;;;2.20;;
74620;SDS011;64861;47.546;19.254;2022-11-12T14:24:39;4.88;;;2.35;;
74620;SDS011;64861;47.546;19.254;2022-11-12T14:32:35;5.88;;;2.70;;
74620;SDS011;64861;47.546;19.254;2022-11-12T14:35:15;4.13;;;2.20;;
74620;SDS011;64861;47.546;19.254;2022-11-12T14:40:58;4.22;;;2.28;;
74620;SDS011;64861;47.546;19.254;2022-11-12T14:46:05;5.00;;;2.28;;
74620;SDS011;64861;47.546;19.254;2022-11-12T14:48:45;5.85;;;2.47;;
74620;SDS011;64861;47.546;19.254;2022-11-12T14:51:14;4.65;;;2.50;;
74620;SDS011;64861;47.546;19.254;2022-11-12T14:53:44;6.15;;;2.50;;
74620;SDS011;64861;47.546;19.254;2022-11-12T14:56:21;5.75;;;2.60;;
74620;SDS011;64861;47.546;19.254;2022-11-12T14:58:59;5.68;;;2.50;;
74620;SDS011;64861;47.546;19.254;2022-11-12T15:01:27;6.18;;;2.65;;
74620;SDS011;64861;47.546;19.254;2022-11-12T15:04:19;5.28;;;2.80;;
74620;SDS011;64861;47.546;19.254;2022-11-12T15:06:53;5.25;;;2.47;;
74620;SDS011;64861;47.546;19.254;2022-11-12T15:09:36;6.50;;;2.80;;
74620;SDS011;64861;47.546;19.254;2022-11-12T15:12:10;4.80;;;2.38;;
74620;SDS011;64861;47.546;19.254;2022-11-12T15:14:43;3.88;;;2.17;;
74620;SDS011;64861;47.546;19.254;2022-11-12T15:22:21;6.22;;;2.67;;
74620;SDS011;64861;47.546;19.254;2022-11-12T15:24:47;4.97;;;2.70;;
74620;SDS011;64861;47.546;19.254;2022-11-12T15:27:26;4.60;;;2.50;;
74620;SDS011;64861;47.546;19.254;2022-11-12T15:30:16;5.63;;;2.50;;
74620;SDS011;64861;47.546;19.254;2022-11-12T15:33:05;5.53;;;2.72;;
74620;SDS011;64861;47.546;19.254;2022-11-12T15:35:40;5.72;;;2.80;;
74620;SDS011;64861;47.546;19.254;2022-11-12T15:38:17;5.90;;;2.83;;
74620;SDS011;64861;47.546;19.254;2022-11-12T15:40:47;5.18;;;2.80;;
74620;SDS011;64861;47.546;19.254;2022-11-12T15:43:20;4.75;;;2.80;;
74620;SDS011;64861;47.546;19.254;2022-11-12T15:45:47;6.05;;;2.95;;
74620;SDS011;64861;47.546;19.254;2022-11-12T15:48:14;5.95;;;3.15;;
74620;SDS011;64861;47.546;19.254;2022-11-12T15:50:40;5.68;;;3.13;;
74620;SDS011;64861;47.546;19.254;2022-11-12T15:53:05;6.45;;;3.40;;
74620;SDS011;64861;47.546;19.254;2022-11-12T15:55:31;5.05;;;2.67;;
74620;SDS011;64861;47.546;19.254;2022-11-12T15:57:58;5.90;;;3.22;;
74620;SDS011;64861;47.546;19.254;2022-11-12T16:00:33;5.50;;;3.13;;
74620;SDS011;64861;47.546;19.254;2022-11-12T16:05:41;6.47;;;2.90;;
74620;SDS011;64861;47.546;19.254;2022-11-12T16:08:07;5.68;;;2.85;;
74620;SDS011;64861;47.546;19.254;2022-11-12T16:10:33;5.90;;;3.20;;
74620;SDS011;64861;47.546;19.254;2022-11-12T16:12:59;6.20;;;3.17;;
74620;SDS011;64861;47.546;19.254;2022-11-12T16:15:26;5.90;;;2.95;;
74620;SDS011;64861;47.546;19.254;2022-11-12T16:17:52;6.22;;;3.05;;
74620;SDS011;64861;47.546;19.254;2022-11-12T16:20:19;5.07;;;3.00;;
74620;SDS011;64861;47.546;19.254;2022-11-12T16:22:50;5.65;;;3.03;;
74620;SDS011;64861;47.546;19.254;2022-11-12T16:25:17;6.57;;;3.05;;
74620;SDS011;64861;47.546;19.254;2022-11-12T16:27:43;6.38;;;3.25;;
74620;SDS011;64861;47.546;19.254;2022-11-12T16:30:13;6.40;;;3.13;;
74620;SDS011;64861;47.546;19.254;2022-11-12T16:32:43;8.80;;;3.78;;
74620;SDS011;64861;47.546;19.254;2022-11-12T16:35:10;6.90;;;3.67;;
74620;SDS011;64861;47.546;19.254;2022-11-12T16:37:36;6.88;;;3.20;;
74620;SDS011;64861;47.546;19.254;2022-11-12T16:40:05;6.45;;;3.65;;
74620;SDS011;64861;47.546;19.254;2022-11-12T16:42:36;6.05;;;3.53;;
74620;SDS011;64861;47.546;19.254;2022-11-12T16:45:02;6.03;;;3.45;;
74620;SDS011;64861;47.546;19.254;2022-11-12T16:47:27;6.38;;;3.58;;
74620;SDS011;64861;47.546;19.254;2022-11-12T16:49:53;6.97;;;4.00;;
74620;SDS011;64861;47.546;19.254;2022-11-12T16:52:18;7.43;;;3.90;;
74620;SDS011;64861;47.546;19.254;2022-11-12T16:54:44;7.32;;;4.07;;
74620;SDS011;64861;47.546;19.254;2022-11-12T16:57:09;6.70;;;3.53;;
74620;SDS011;64861;47.546;19.254;2022-11-12T16:59:35;6.43;;;3.75;;
74620;SDS011;64861;47.546;19.254;2022-11-12T17:02:00;7.03;;;4.32;;